Alamo, Nevada Weather observations

Data are for observation ending at time listed.
 Day   Time    Ave.   Ave.  Ave.  Vector   Max.   Stn.    Total    Solar   Ave.  
  of    of     Air    Rel.  Wind   Wind    Wind   Baro.  Precip.   Rad.    Soil  
Year   Day     Temp.  Hum.  Speed  Dir.    Gust   Pres.                    Temp. 
2014   (PST)    F      %     mph   deg.    mph     mb.     in.     W/m2     F   
------------------------------------------------------------------------------
 208    8:00   80.4    35    2.5   359      4.4   899.5    0.00     254    74.9
 208    8:10   81.4    34    2.4    13      3.9   899.4    0.00     134    75.0
 208    8:20   82.2    33    2.2    28      4.2   899.1    0.00      89    75.1
 208    8:30   83.1    33    2.7    10      4.9   899.1    0.00      68    75.1
 208    8:40   84.5    32    2.8   338      4.9   899.1    0.00      70    75.1
 208    8:50   85.6    30    2.4   357      4.5   899.0    0.00      75    75.1
 208    9:00   86.3    29    2.3    15      4.6   899.0    0.00     134    75.1
 208    9:10   87.7    27    1.9    14      4.6   899.0    0.00     195    75.2
 208    9:20   88.6    26    1.9   344      4.7   898.8    0.00     193    75.4
 208    9:30   89.8    24    1.3   320      4.2   898.6    0.00     118    75.5
 208    9:40   90.1    25    0.7   131      1.8   898.5    0.00     107    75.7
 208    9:50   89.9    27    1.1   205      2.7   898.3    0.00     220    75.9
 208   10:00   90.4    28    1.6   200      3.4   898.2    0.00     262    76.0
 208   10:10   91.4    27    1.7   198      4.5   898.0    0.00     111    76.2
 208   10:20   92.2    26    2.7   195      8.0   898.0    0.00     155    76.4
 208   10:30   93.0    26    2.9   184      6.5   898.0    0.00     919    76.6
 208   10:40   93.4    26    3.0   196      6.3   898.5    0.00    1018    76.9
 208   10:50   94.1    26    2.5   187      5.5   897.8    0.00    1038    77.7
 208   11:00   94.7    25    2.2   188      6.5   897.3    0.00    1039    78.8
 208   11:10   95.7    24    2.3   189      5.8   897.0    0.00    1046    79.7
 208   11:20   96.0    24    2.8   193      5.9   896.9    0.00    1091    80.2
 208   11:30   96.7    23    2.6   193      6.8   896.7    0.00    1115    80.6
 208   11:40   97.7    21    1.5   119      7.9   896.4    0.00    1149    80.9
 208   11:50   98.2    20    2.7   143      8.2   896.4    0.00    1159    81.2
 208   12:00   97.9    22    2.8   183      7.5   896.6    0.00    1165    81.9
 208   12:10   98.5    22    3.1   187      8.3   896.3    0.00    1177    83.2
 208   12:20   98.8    20    1.8   181      6.4   896.2    0.00     995    84.7
 208   12:30   98.7    21    2.5   176      9.9   896.7    0.00    1066    85.9
 208   12:40   98.8    21    2.9   179      9.2   897.0    0.00    1159    87.0
 208   12:50   99.4    20    2.3   179     10.4   896.8    0.00    1146    88.1
 208   13:00  100.0    19    2.0   157      8.4   896.8    0.00    1152    89.1
 208   13:10  100.3    19    2.2   171      8.6   896.8    0.00    1146    90.1
 208   13:20   99.7    19    2.9   180     10.7   896.9    0.00     931    91.0
 208   13:30   98.6    20    2.4   181      7.8   896.6    0.00     859    91.6
 208   13:40   98.5    21    2.5   180      7.3   896.3    0.00     665    92.0
 208   13:50   96.9    21    2.0   173      7.2   896.2    0.00     387    92.1
 208   14:00   96.8    20    4.1   184     10.1   896.1    0.00     843    91.9
 208   14:10   98.8    17    3.8   195     11.3   896.0    0.00    1001    91.7
 208   14:20   98.5    16    5.4   202      9.6   896.0    0.00     661    92.1
 208   14:30   97.0    19    2.2   192      7.6   896.0    0.00     354    92.3
 208   14:40   96.7    18    3.3   200      9.0   895.9    0.00     501    92.1
 208   14:50   97.5    18    3.8   214     10.3   896.1    0.00     620    91.9
 208   15:00   97.0    17    3.6   212     10.7   896.3    0.00     268    91.8
 208   15:10   96.8    18    3.6   292     12.0   896.3    0.00     254    91.5
 208   15:20   93.1    22    6.8   343     13.3   896.4    0.00     277    91.1
 208   15:30   91.1    24    9.2   345     16.0   896.5    0.00     428    90.6
 208   15:40   90.9    24    9.6   338     17.7   896.6    0.00     426    90.2
 208   15:50   89.9    24    8.2   348     16.3   896.7    0.00     163    89.8
 208   16:00   89.2    23    9.8   345     15.7   896.8    0.00     112    89.4
 208   16:10   89.2    23    7.4   344     16.9   896.8    0.00      85    88.8
 208   16:20   89.4    23    7.1   342     12.6   896.7    0.00      83    88.3
 208   16:30   89.3    24    5.7   348     12.9   896.8    0.00      96    87.8
 208   16:40   89.2    25    6.2   354     11.3   896.9    0.00     101    87.3
 208   16:50   89.2    25    4.8   358      9.9   897.4    0.00      94    87.0
 208   17:00   88.9    25    4.7    39     14.0   898.0    0.00      38    86.6
 208   17:10   85.9    34    9.2    84     21.9   898.2    0.00      20    86.3
 208   17:20   83.2    40    7.9    90     18.2   898.6    0.00      15    85.9
 208   17:30   77.2    59    3.5   111     14.8   899.1    0.00      13    85.5
 208   17:40   76.0    62    3.8   182      9.6   899.5    0.00       7    85.2
 208   17:50   75.1    64    3.3   201      7.7   899.6    0.00       7    84.6
 208   18:00   75.6    64    4.7   223      9.4   899.1    0.00       2    84.1
 208   18:10   74.4    68    2.7   224      7.1   898.7    0.00       0    83.6
 208   18:20   74.5    65    2.0   261      5.8   898.6    0.00       0    83.1
 208   18:30   75.1    66    3.6    66      7.7   898.6    0.00       0    82.7
 208   18:40   74.7    69    4.8   360      8.8   898.9    0.01       0    82.3
 208   18:50   73.6    72    5.8   342     11.8   899.0    0.00       0    81.9
 208   19:00   72.2    78    1.7    70      7.2   898.9    0.00       0    81.5
 208   19:10   71.9    78    1.1     8      4.5   899.0    0.00       0    81.1
 208   19:20   73.2    74    2.2   358      5.0   899.3    0.00       0    80.9
 208   19:30   74.2    69    3.4    12      6.6   899.5    0.00       0    80.6
 208   19:40   75.7    60    4.3    18     11.3   899.4    0.00       0    80.2
 208   19:50   75.5    61    4.1    22      6.7   899.5    0.00       0    79.9
 208   20:00   74.6    61    3.7     9      8.6   899.6    0.00       0    79.6
 208   20:10   74.7    58    3.8   343      9.5   899.8    0.00       0    79.2
 208   20:20   75.8    56    2.9   328      9.0   900.0    0.00       0    79.0
 208   20:30   75.1    61    0.2   118      1.2   900.0    0.00       0    78.7
 208   20:40   74.3    62    1.0    46      4.0   900.0    0.00       0    78.6
 208   20:50   74.7    60    1.8    55      4.2   900.0    0.00       0    78.4
 208   21:00   74.9    58    1.5    56      3.9   900.0    0.00       0    78.2
 208   21:10   74.9    56    1.8    42      3.4   900.0    0.00       0    78.1
 208   21:20   75.4    54    3.3    61      7.9   900.0    0.00       0    77.9
 208   21:30   75.7    52    2.6    49      5.8   900.1    0.00       0    77.7
 208   21:40   75.8    52    3.8    22      8.3   900.1    0.00       0    77.5
 208   21:50   75.1    54    3.8    19      6.6   899.9    0.00       0    77.2
 208   22:00   74.4    56    3.2    29      5.7   899.9    0.00       0    77.0
 208   22:10   73.6    60    3.1    18      7.0   899.8    0.00       0    76.8
 208   22:20   73.2    60    2.3    27      5.5   899.8    0.00       0    76.6
 208   22:30   73.3    60    2.2   320      3.9   899.8    0.00       0    76.4
 208   22:40   72.8    62    2.9   340      5.2   899.8    0.00       0    76.4
 208   22:50   72.1    63    3.2   345      6.1   899.8    0.00       0    76.3
 208   23:00   72.2    63    2.8     7      4.9   899.9    0.00       0    76.3
 208   23:10   72.5    62    1.1   347      3.4   900.1    0.00       0    76.1
 208   23:20   72.5    63    1.3    66      2.6   900.1    0.00       0    76.0
 208   23:30   72.5    62    2.6    57      4.2   900.1    0.00       0    76.0
 208   23:40   73.0    60    2.2    52      4.1   900.0    0.00       0    75.9
 208   23:50   73.1    60    1.3   222      3.2   900.0    0.00       0    75.8
 209    0:00   72.6    62    0.6   204      2.2   900.1    0.00       0    75.7
 209    0:10   72.3    64    0.8   330      2.0   900.1    0.00       0    75.6
 209    0:20   72.3    64    1.8    38      3.1   900.1    0.00       0    75.6
 209    0:30   71.9    66    1.8    24      3.7   900.0    0.00       0    75.5
 209    0:40   71.8    66    1.7    12      2.6   899.9    0.00       0    75.4
 209    0:50   72.5    63    2.1     8      4.3   899.9    0.00       0    75.4
 209    1:00   72.8    62    1.4     0      3.4   899.8    0.00       0    75.3
 209    1:10   72.8    63    1.0   210      3.0   899.8    0.00       0    75.2
 209    1:20   72.1    68    0.9   189      2.4   899.9    0.00       0    75.2
 209    1:30   71.3    68    2.0   209      3.9   900.0    0.00       0    75.1
 209    1:40   71.3    69    0.9   213      4.1   900.1    0.00       0    75.1
 209    1:50   71.7    66    2.2   208      5.0   900.3    0.00       0    75.0
 209    2:00   72.6    63    1.4   229      4.2   900.4    0.00       0    74.9
 209    2:10   72.4    66    1.9   243      5.0   900.2    0.00       0    74.9
 209    2:20   71.7    68    0.7    96      3.9   900.6    0.00       0    74.8
 209    2:30   71.7    67    0.4    81      1.7   900.6    0.00       0    74.8
 209    2:40   72.1    65    1.9    56      4.4   900.5    0.00       0    74.8
 209    2:50   72.6    63    1.6    38      3.0   900.3    0.00       0    74.7
 209    3:00   72.9    63    1.1   311      2.3   900.2    0.00       0    74.7
 209    3:10   72.4    66    1.1   223      2.7   900.2    0.00       0    74.7
 209    3:20   72.4    64    1.5   338      3.1   900.1    0.00       0    74.6
 209    3:30   73.1    62    1.2   253      3.0   900.0    0.00       0    74.6
 209    3:40   72.4    67    2.4   234      5.9   900.2    0.00       0    74.6
 209    3:50   71.9    69    2.0   269      4.5   900.2    0.00       0    74.6
 209    4:00   71.7    70    1.2   297      3.6   900.1    0.00       0    74.5
 209    4:10   71.2    71    0.6    92      2.1   900.0    0.00       0    74.4
 209    4:20   71.5    68    1.3    18      5.0   900.1    0.00       0    74.4
 209    4:30   72.1    66    1.0   358      2.8   900.1    0.00       0    74.3
 209    4:40   71.7    67    0.3    76      1.8   900.3    0.00       0    74.3
 209    4:50   71.5    69    0.8    15      2.3   900.3    0.00       0    74.3
 209    5:00   71.3    70    0.8     9      2.4   900.3    0.00       0    74.2
 209    5:10   71.4    71    1.2    30      1.9   900.3    0.00       1    74.2
 209    5:20   70.9    74    0.7   321      1.8   900.3    0.00       6    74.2
 209    5:30   70.6    75    1.6    17      2.8   900.2    0.00      10    74.2
 209    5:40   70.3    76    1.2   213      2.1   900.3    0.00      23    74.1
 209    5:50   70.8    76    0.4   264      2.2   900.4    0.00      45    74.1
 209    6:00   71.1    75    0.4   314      1.3   900.5    0.00      46    74.2
 209    6:10   71.1    77    0.0   173      0.4   900.8    0.00      42    74.2
 209    6:20   71.1    77    0.1   200      1.0   900.9    0.00      54    74.3
 209    6:30   71.4    75    0.2   243      1.0   901.1    0.00      67    74.4
 209    6:40   71.8    75    0.4   214      1.2   901.2    0.00      67    74.5
 209    6:50   71.9    73    1.1   204      1.8   901.5    0.00      67    74.6
 209    7:00   72.1    74    0.0   180      0.9   901.6    0.00      79    74.7
 209    7:10   72.3    72    0.8   203      2.3   901.7    0.00      86    74.8
 209    7:20   72.4    73    1.0   190      2.5   901.7    0.00      88    74.9
 209    7:30   72.2    73    2.2   184      4.7   901.9    0.00      88    74.9
 209    7:40   72.7    68    2.0   182      4.8   902.2    0.00      82    75.0
 209    7:50   73.0    68    2.0   182      6.9   902.3    0.00      84    74.9

Return to Alamo, Nevada graphs page.


Western Regional Climate Center,wrcc@dri.edu